createdAt,value
2019-02-04T00:00:14.443Z,23.17
2019-02-04T00:02:41.638Z,24.50
2019-02-04T00:05:08.232Z,20.07
2019-02-04T00:07:34.930Z,22.13
2019-02-04T00:10:01.678Z,20.67
2019-02-04T00:12:28.647Z,20.03
2019-02-04T00:14:55.252Z,19.37
2019-02-04T00:17:21.970Z,18.93
2019-02-04T00:19:48.545Z,20.10
2019-02-04T00:22:16.009Z,18.40
2019-02-04T00:24:42.803Z,19.70
2019-02-04T00:27:09.535Z,19.30
2019-02-04T00:29:36.204Z,19.50
2019-02-04T00:32:03.025Z,19.83
2019-02-04T00:34:29.821Z,19.80
2019-02-04T00:36:56.545Z,20.50
2019-02-04T00:39:23.275Z,19.67
2019-02-04T00:41:50.026Z,19.50
2019-02-04T00:44:16.623Z,19.07
2019-02-04T00:46:51.925Z,22.10
2019-02-04T00:49:11.660Z,22.00
2019-02-04T00:51:38.275Z,21.23
2019-02-04T00:54:04.836Z,20.90
2019-02-04T00:56:31.703Z,20.53
2019-02-04T00:58:58.316Z,19.43
2019-02-04T01:01:25.136Z,20.40
2019-02-04T01:03:51.814Z,22.97
2019-02-04T01:06:18.535Z,19.47
2019-02-04T01:08:45.047Z,21.30
2019-02-04T01:11:12.034Z,21.47
2019-02-04T01:13:38.629Z,19.60
2019-02-04T01:16:05.481Z,21.20
2019-02-04T01:18:32.091Z,22.33
2019-02-04T01:20:58.661Z,23.20
2019-02-04T01:23:25.247Z,20.23
2019-02-04T01:25:51.900Z,21.17
2019-02-04T01:28:18.456Z,18.67
2019-02-04T01:30:45.065Z,18.60
2019-02-04T01:33:11.850Z,17.73
2019-02-04T01:35:38.490Z,27.43
2019-02-04T01:38:05.151Z,23.10
2019-02-04T01:40:31.781Z,22.03
2019-02-04T01:42:58.590Z,23.57
2019-02-04T01:45:25.218Z,21.73
2019-02-04T01:47:51.938Z,22.10
2019-02-04T01:50:20.222Z,23.83
2019-02-04T01:52:47.201Z,21.83
2019-02-04T01:55:13.901Z,24.90
2019-02-04T01:57:40.669Z,22.73
2019-02-04T02:00:19.391Z,27.43
2019-02-04T02:02:45.975Z,24.73
2019-02-04T02:05:13.093Z,22.53
2019-02-04T02:07:39.938Z,24.77
2019-02-04T02:10:10.071Z,25.97
2019-02-04T02:12:36.624Z,26.97
2019-02-04T02:15:05.615Z,26.10
2019-02-04T02:17:32.174Z,30.17
2019-02-04T02:19:58.756Z,31.40
2019-02-04T02:22:25.289Z,26.80
2019-02-04T02:24:51.900Z,26.10
2019-02-04T02:27:18.430Z,29.63
2019-02-04T02:29:45.077Z,26.33
2019-02-04T02:32:11.568Z,27.23
2019-02-04T02:34:38.260Z,26.50
2019-02-04T02:37:04.845Z,25.70
2019-02-04T02:39:31.859Z,26.00
2019-02-04T02:41:58.430Z,26.03
2019-02-04T02:44:24.863Z,25.70
2019-02-04T02:46:51.454Z,29.80
2019-02-04T02:49:18.055Z,28.33
2019-02-04T02:51:44.534Z,25.30
2019-02-04T02:54:11.142Z,26.50
2019-02-04T02:56:37.794Z,25.83
2019-02-04T02:59:04.754Z,29.20
2019-02-04T03:01:31.325Z,30.53
2019-02-04T03:03:57.983Z,28.57
2019-02-04T03:06:24.608Z,28.67
2019-02-04T03:08:51.210Z,28.93
2019-02-04T03:11:17.834Z,27.90
2019-02-04T03:13:44.385Z,26.07
2019-02-04T03:16:11.496Z,28.07
2019-02-04T03:18:38.214Z,28.63
2019-02-04T03:21:04.870Z,32.07
2019-02-04T03:23:31.582Z,25.73
2019-02-04T03:25:59.251Z,26.03
2019-02-04T03:28:26.907Z,25.60
2019-02-04T03:30:53.730Z,24.20
2019-02-04T03:33:20.593Z,25.03
2019-02-04T03:35:47.310Z,22.53
2019-02-04T03:38:13.866Z,22.20
2019-02-04T03:40:40.547Z,22.60
2019-02-04T03:43:07.142Z,25.10
2019-02-04T03:45:33.706Z,21.10
2019-02-04T03:48:06.624Z,21.03
2019-02-04T03:50:28.727Z,22.30
2019-02-04T03:52:55.299Z,21.30
2019-02-04T03:55:22.097Z,21.80
2019-02-04T03:57:48.812Z,21.47
2019-02-04T04:00:27.259Z,23.27
2019-02-04T04:02:54.425Z,24.63
2019-02-04T04:05:21.476Z,24.20
2019-02-04T04:07:48.208Z,28.17
2019-02-04T04:10:14.973Z,30.83
2019-02-04T04:12:41.628Z,25.27
2019-02-04T04:15:10.739Z,24.17
2019-02-04T04:17:37.289Z,23.93
2019-02-04T04:20:07.566Z,22.23
2019-02-04T04:22:34.882Z,23.90
2019-02-04T04:25:01.616Z,21.43
2019-02-04T04:27:28.258Z,20.50
2019-02-04T04:29:54.868Z,20.73
2019-02-04T04:32:21.434Z,18.57
2019-02-04T04:34:48.037Z,20.27
2019-02-04T04:37:15.167Z,18.77
2019-02-04T04:39:42.015Z,17.93
2019-02-04T04:42:08.670Z,19.40
2019-02-04T04:44:36.783Z,17.37
2019-02-04T04:47:03.538Z,18.17
2019-02-04T04:49:30.244Z,20.70
2019-02-04T04:51:56.724Z,17.47
2019-02-04T04:54:23.362Z,16.90
2019-02-04T04:56:49.951Z,16.33
2019-02-04T04:59:16.604Z,20.30
2019-02-04T05:01:43.189Z,17.17
2019-02-04T05:04:09.741Z,16.57
2019-02-04T05:06:36.459Z,15.10
2019-02-04T05:09:05.340Z,14.97
2019-02-04T05:11:31.920Z,15.83
2019-02-04T05:13:58.471Z,17.60
2019-02-04T05:16:25.559Z,13.90
2019-02-04T05:18:52.127Z,16.83
2019-02-04T05:21:18.731Z,16.13
2019-02-04T05:23:45.322Z,14.47
2019-02-04T05:26:11.908Z,14.10
2019-02-04T05:28:40.182Z,15.50
2019-02-04T05:31:06.811Z,17.60
2019-02-04T05:33:33.772Z,14.33
2019-02-04T05:36:00.583Z,17.60
2019-02-04T05:38:27.446Z,17.17
2019-02-04T05:40:54.153Z,17.70
2019-02-04T05:43:20.820Z,14.23
2019-02-04T05:45:47.421Z,18.77
2019-02-04T05:48:14.137Z,14.00
2019-02-04T05:50:40.936Z,14.97
2019-02-04T05:53:07.662Z,15.27
2019-02-04T05:55:34.292Z,19.33
2019-02-04T05:58:00.969Z,15.00
2019-02-04T06:00:30.174Z,20.67
2019-02-04T06:02:56.638Z,13.93
2019-02-04T06:05:23.307Z,14.53
2019-02-04T06:07:49.967Z,18.10
2019-02-04T06:10:16.978Z,15.93
2019-02-04T06:12:43.597Z,19.23
2019-02-04T06:15:14.777Z,17.17
2019-02-04T06:17:41.499Z,18.03
2019-02-04T06:20:11.932Z,20.13
2019-02-04T06:22:38.510Z,19.07
2019-02-04T06:25:05.676Z,17.60
2019-02-04T06:27:32.280Z,22.17
2019-02-04T06:29:58.799Z,23.00
2019-02-04T06:32:25.342Z,21.80
2019-02-04T06:34:51.968Z,23.53
2019-02-04T06:37:18.527Z,25.93
2019-02-04T06:39:45.049Z,22.10
2019-02-04T06:42:11.643Z,31.13
2019-02-04T06:44:40.391Z,26.17
2019-02-04T06:47:07.002Z,23.00
2019-02-04T06:49:33.587Z,21.90
2019-02-04T06:52:00.259Z,24.97
2019-02-04T06:54:26.747Z,18.83
2019-02-04T06:56:53.451Z,18.37
2019-02-04T06:59:20.123Z,18.47
2019-02-04T07:01:47.034Z,18.00
2019-02-04T07:04:13.602Z,18.30
2019-02-04T07:06:40.193Z,21.00
2019-02-04T07:09:08.275Z,16.20
2019-02-04T07:11:34.924Z,20.37
2019-02-04T07:14:01.502Z,19.43
2019-02-04T07:16:28.399Z,17.80
2019-02-04T07:18:54.998Z,16.93
2019-02-04T07:21:22.109Z,15.13
2019-02-04T07:23:48.823Z,16.03
2019-02-04T07:26:15.493Z,17.00
2019-02-04T07:28:42.058Z,18.30
2019-02-04T07:31:08.760Z,16.80
2019-02-04T07:33:35.323Z,15.07
2019-02-04T07:36:03.498Z,16.93
2019-02-04T07:38:30.218Z,15.73
2019-02-04T07:40:56.888Z,15.93
2019-02-04T07:43:23.563Z,16.10
2019-02-04T07:45:50.169Z,17.80
2019-02-04T07:48:16.753Z,16.90
2019-02-04T07:50:43.477Z,14.60
2019-02-04T07:53:10.201Z,17.03
2019-02-04T07:55:36.697Z,14.50
2019-02-04T07:58:03.686Z,17.23
2019-02-04T08:00:32.594Z,15.50
2019-02-04T08:02:59.283Z,14.60
2019-02-04T08:05:25.946Z,18.13
2019-02-04T08:07:52.860Z,14.40
2019-02-04T08:10:19.554Z,15.60
2019-02-04T08:12:46.398Z,14.50
2019-02-04T08:15:18.877Z,19.60
2019-02-04T08:17:46.371Z,15.33
2019-02-04T08:20:13.890Z,15.40
2019-02-04T08:22:42.284Z,15.70
2019-02-04T08:25:14.400Z,15.67
2019-02-04T08:27:41.211Z,17.90
2019-02-04T08:30:14.759Z,16.90
2019-02-04T08:32:41.430Z,16.73
2019-02-04T08:35:09.886Z,16.43
2019-02-04T08:37:36.488Z,15.57
2019-02-04T08:40:10.024Z,17.17
2019-02-04T08:42:36.669Z,22.57
2019-02-04T08:45:05.235Z,15.60
2019-02-04T08:47:32.214Z,18.17
2019-02-04T08:50:01.302Z,15.33
2019-02-04T08:52:27.261Z,15.87
2019-02-04T08:54:53.848Z,18.43
2019-02-04T08:57:20.490Z,16.50
2019-02-04T08:59:46.955Z,16.70
2019-02-04T09:02:13.663Z,21.27
2019-02-04T09:04:40.206Z,16.50
2019-02-04T09:07:07.136Z,17.17
2019-02-04T09:09:33.703Z,20.87
2019-02-04T09:12:00.380Z,16.93
2019-02-04T09:14:26.884Z,22.03
2019-02-04T09:16:53.482Z,20.07
2019-02-04T09:19:20.094Z,17.67
2019-02-04T09:21:46.551Z,18.30
2019-02-04T09:24:13.280Z,17.80
2019-02-04T09:26:40.253Z,18.17
2019-02-04T09:29:06.875Z,18.90
2019-02-04T09:31:33.554Z,20.80
2019-02-04T09:34:00.028Z,17.70
2019-02-04T09:36:26.514Z,18.27
2019-02-04T09:38:53.097Z,18.57
2019-02-04T09:41:19.695Z,16.83
2019-02-04T09:43:46.247Z,19.60
2019-02-04T09:46:13.031Z,19.50
2019-02-04T09:48:39.623Z,20.20
2019-02-04T09:51:06.267Z,20.70
2019-02-04T09:53:32.811Z,21.67
2019-02-04T09:55:59.607Z,21.37
2019-02-04T09:58:26.190Z,23.40
2019-02-04T10:00:53.079Z,22.87
2019-02-04T10:03:19.659Z,22.23
2019-02-04T10:05:46.456Z,19.07
2019-02-04T10:08:13.033Z,20.13
2019-02-04T10:10:39.586Z,23.23
2019-02-04T10:13:06.378Z,26.27
2019-02-04T10:15:41.199Z,21.97
2019-02-04T10:18:08.508Z,25.50
2019-02-04T10:20:35.470Z,21.80
2019-02-04T10:23:03.049Z,21.17
2019-02-04T10:25:38.528Z,22.30
2019-02-04T10:28:06.073Z,24.53
2019-02-04T10:30:32.629Z,22.70
2019-02-04T10:32:59.314Z,23.40
2019-02-04T10:35:25.967Z,23.40
2019-02-04T10:37:52.561Z,21.33
2019-02-04T10:40:28.115Z,21.50
2019-02-04T10:42:54.897Z,24.57
2019-02-04T10:45:21.495Z,25.30
2019-02-04T10:47:49.199Z,24.87
2019-02-04T10:50:18.501Z,29.90
2019-02-04T10:52:45.639Z,23.30
2019-02-04T10:55:12.489Z,24.10
2019-02-04T10:57:40.492Z,25.40
2019-02-04T11:00:14.363Z,22.63
2019-02-04T11:02:41.102Z,24.53
2019-02-04T11:05:11.221Z,21.00
2019-02-04T11:07:37.934Z,23.37
2019-02-04T11:10:08.280Z,21.40
2019-02-04T11:12:34.959Z,22.43
2019-02-04T11:15:01.704Z,22.43
2019-02-04T11:17:28.456Z,22.40
2019-02-04T11:19:55.271Z,22.63
2019-02-04T11:22:21.968Z,22.97
2019-02-04T11:24:48.878Z,19.53
2019-02-04T11:27:15.703Z,19.77
2019-02-04T11:29:42.406Z,21.13
2019-02-04T11:32:09.225Z,18.60
2019-02-04T11:34:35.770Z,19.20
2019-02-04T11:37:02.725Z,18.53
2019-02-04T11:39:29.194Z,19.97
2019-02-04T11:41:55.853Z,18.83
2019-02-04T11:44:22.493Z,17.77
2019-02-04T11:46:49.065Z,17.90
2019-02-04T11:49:15.555Z,18.73
2019-02-04T11:51:42.192Z,16.33
2019-02-04T11:54:08.790Z,19.33
2019-02-04T11:56:35.365Z,18.60
2019-02-04T11:59:02.079Z,17.43
2019-02-04T12:01:28.846Z,16.80
2019-02-04T12:03:55.421Z,16.97
2019-02-04T12:06:21.994Z,18.50
2019-02-04T12:08:48.734Z,15.83
2019-02-04T12:11:15.466Z,15.13
2019-02-04T12:13:42.170Z,16.33
2019-02-04T12:16:08.843Z,15.73
2019-02-04T12:18:35.446Z,18.40
2019-02-04T12:21:02.624Z,15.97
2019-02-04T12:23:29.235Z,18.27
2019-02-04T12:25:55.788Z,17.93
2019-02-04T12:28:22.639Z,17.00
2019-02-04T12:30:49.338Z,16.57
2019-02-04T12:33:15.932Z,16.30
2019-02-04T12:35:42.740Z,18.83
2019-02-04T12:38:09.493Z,19.20
2019-02-04T12:40:36.124Z,17.80
2019-02-04T12:43:02.994Z,15.93
2019-02-04T12:45:34.839Z,18.70
2019-02-04T12:48:01.641Z,16.77
2019-02-04T12:50:28.397Z,18.20
2019-02-04T12:52:55.304Z,15.17
2019-02-04T12:55:24.257Z,14.87
2019-02-04T12:57:51.055Z,15.77
2019-02-04T13:00:22.387Z,15.23
2019-02-04T13:02:49.180Z,16.57
2019-02-04T13:05:18.786Z,15.10
2019-02-04T13:07:45.337Z,14.40
2019-02-04T13:10:14.732Z,15.07
2019-02-04T13:12:41.753Z,17.77
2019-02-04T13:15:12.120Z,15.23
2019-02-04T13:17:38.813Z,15.13
2019-02-04T13:20:08.697Z,15.57
2019-02-04T13:22:35.405Z,15.83
2019-02-04T13:25:02.689Z,17.40
2019-02-04T13:27:29.573Z,16.53
2019-02-04T13:29:56.333Z,16.40
2019-02-04T13:32:23.897Z,18.03
2019-02-04T13:34:50.633Z,14.37
2019-02-04T13:37:17.312Z,14.97
2019-02-04T13:39:44.026Z,15.67
2019-02-04T13:42:10.697Z,14.03
2019-02-04T13:44:37.459Z,16.40
2019-02-04T13:47:05.854Z,14.43
2019-02-04T13:49:32.438Z,14.70
2019-02-04T13:51:59.067Z,19.30
2019-02-04T13:54:25.638Z,14.50
2019-02-04T13:56:52.242Z,15.97
2019-02-04T13:59:18.861Z,15.07
2019-02-04T14:01:45.381Z,15.27
2019-02-04T14:04:12.472Z,18.80
2019-02-04T14:06:39.082Z,15.23
2019-02-04T14:09:09.447Z,14.47
2019-02-04T14:11:36.068Z,15.07
2019-02-04T14:14:02.620Z,15.97
2019-02-04T14:16:29.234Z,14.67
2019-02-04T14:18:55.808Z,15.07
2019-02-04T14:21:22.637Z,13.20
2019-02-04T14:23:49.232Z,14.33
2019-02-04T14:26:15.856Z,13.43
2019-02-04T14:28:42.602Z,14.63
2019-02-04T14:31:09.279Z,13.90
2019-02-04T14:33:35.896Z,14.43
2019-02-04T14:36:03.020Z,14.23
2019-02-04T14:38:29.981Z,13.00
2019-02-04T14:40:56.456Z,14.67
2019-02-04T14:43:26.934Z,15.50
2019-02-04T14:46:18.678Z,14.13
2019-02-04T14:49:06.078Z,12.70
2019-02-04T14:51:57.947Z,13.00
2019-02-04T14:54:52.165Z,13.53
2019-02-04T14:57:25.700Z,13.00
2019-02-04T14:59:55.339Z,13.20
2019-02-04T15:02:37.882Z,19.40
2019-02-04T15:05:11.032Z,12.67
2019-02-04T15:08:02.937Z,13.87
2019-02-04T15:10:33.531Z,13.67
2019-02-04T15:13:10.267Z,12.83
2019-02-04T15:15:40.617Z,12.90
2019-02-04T15:18:18.541Z,13.20
2019-02-04T15:21:09.353Z,11.33
2019-02-04T15:23:39.835Z,13.33
2019-02-04T15:26:19.219Z,11.70
2019-02-04T15:28:50.085Z,11.60
2019-02-04T15:31:32.713Z,12.03
2019-02-04T15:34:12.206Z,12.37
2019-02-04T15:36:51.491Z,13.43
2019-02-04T15:39:34.014Z,14.63
2019-02-04T15:42:31.670Z,13.90
2019-02-04T15:44:54.773Z,12.43
2019-02-04T15:47:34.585Z,12.80
2019-02-04T15:50:20.616Z,11.97
2019-02-04T15:52:47.230Z,12.10
2019-02-04T15:55:15.349Z,12.50
2019-02-04T15:57:42.183Z,12.90
2019-02-04T16:00:11.873Z,12.20
2019-02-04T16:02:38.633Z,15.70
2019-02-04T16:05:08.131Z,13.07
2019-02-04T16:07:35.170Z,15.60
2019-02-04T16:10:02.157Z,15.03
2019-02-04T16:12:28.785Z,14.17
2019-02-04T16:14:55.405Z,14.33
2019-02-04T16:17:22.007Z,13.87
2019-02-04T16:19:48.749Z,13.80
2019-02-04T16:22:15.413Z,13.37
2019-02-04T16:24:42.024Z,13.93
2019-02-04T16:27:08.996Z,16.03
2019-02-04T16:29:35.590Z,16.07
2019-02-04T16:32:03.582Z,15.03
2019-02-04T16:34:30.327Z,17.10
2019-02-04T16:36:56.810Z,16.90
2019-02-04T16:39:24.436Z,16.23
2019-02-04T16:41:52.167Z,15.80
2019-02-04T16:44:19.094Z,15.77
2019-02-04T16:46:45.979Z,16.63
2019-02-04T16:49:12.935Z,15.37
2019-02-04T16:51:40.152Z,18.63
2019-02-04T16:54:07.011Z,16.20
2019-02-04T16:56:34.502Z,16.80
2019-02-04T16:59:01.549Z,17.33
2019-02-04T17:01:29.898Z,18.63
2019-02-04T17:03:56.473Z,19.40
2019-02-04T17:06:23.093Z,16.77
2019-02-04T17:08:49.724Z,17.60
2019-02-04T17:11:17.079Z,16.80
2019-02-04T17:13:43.647Z,17.80
2019-02-04T17:16:10.524Z,17.50
2019-02-04T17:18:37.109Z,19.70
2019-02-04T17:21:04.063Z,16.80
2019-02-04T17:23:30.888Z,16.43
2019-02-04T17:25:59.619Z,17.57
2019-02-04T17:28:26.974Z,17.03
2019-02-04T17:30:53.763Z,15.83
2019-02-04T17:33:20.482Z,16.40
2019-02-04T17:35:47.301Z,16.63
2019-02-04T17:38:13.985Z,17.10
2019-02-04T17:40:41.329Z,17.30
2019-02-04T17:43:08.165Z,17.27
2019-02-04T17:45:35.718Z,17.80
2019-02-04T17:48:04.903Z,16.63
2019-02-04T17:50:32.280Z,17.50
2019-02-04T17:53:00.918Z,15.20
2019-02-04T17:55:29.133Z,15.70
2019-02-04T17:57:56.201Z,16.70
2019-02-04T18:00:35.849Z,17.07
2019-02-04T18:03:03.957Z,15.87
2019-02-04T18:05:31.267Z,15.17
2019-02-04T18:07:58.768Z,16.17
2019-02-04T18:10:26.104Z,15.23
2019-02-04T18:12:53.333Z,16.30
2019-02-04T18:15:21.373Z,15.87
2019-02-04T18:17:48.215Z,14.57
2019-02-04T18:20:15.354Z,15.23
2019-02-04T18:22:42.571Z,15.33
2019-02-04T18:25:14.825Z,16.30
2019-02-04T18:27:42.652Z,16.70
2019-02-04T18:30:16.276Z,15.90
2019-02-04T18:32:44.072Z,14.00
2019-02-04T18:35:13.124Z,14.63
2019-02-04T18:37:40.744Z,16.17
2019-02-04T18:40:11.172Z,16.57
2019-02-04T18:42:38.882Z,14.77
2019-02-04T18:45:09.614Z,13.47
2019-02-04T18:47:37.198Z,15.23
2019-02-04T18:50:07.806Z,14.73
2019-02-04T18:52:37.149Z,13.80
2019-02-04T18:55:07.742Z,14.97
2019-02-04T18:57:35.230Z,13.60
2019-02-04T19:00:05.422Z,16.00
2019-02-04T19:02:33.032Z,14.47
2019-02-04T19:05:00.710Z,13.40
2019-02-04T19:07:28.395Z,13.50
2019-02-04T19:09:56.323Z,13.10
2019-02-04T19:12:24.205Z,14.43
2019-02-04T19:14:54.740Z,13.60
2019-02-04T19:17:22.252Z,13.60
2019-02-04T19:19:50.190Z,12.40
2019-02-04T19:22:19.145Z,12.60
2019-02-04T19:24:46.849Z,12.57
2019-02-04T19:27:14.726Z,12.83
2019-02-04T19:29:42.169Z,14.20
2019-02-04T19:32:10.341Z,12.73
2019-02-04T19:34:37.878Z,13.53
2019-02-04T19:37:07.768Z,13.63
2019-02-04T19:39:36.090Z,13.17
2019-02-04T19:42:04.710Z,12.00
2019-02-04T19:44:33.604Z,12.23
2019-02-04T19:47:02.052Z,12.10
2019-02-04T19:49:30.664Z,12.47
2019-02-04T19:51:58.634Z,14.07
2019-02-04T19:54:27.026Z,11.97
2019-02-04T19:56:54.606Z,13.10
2019-02-04T19:59:22.809Z,12.10
2019-02-04T20:01:50.583Z,12.37
2019-02-04T20:04:18.362Z,12.50
2019-02-04T20:06:46.222Z,12.33
2019-02-04T20:09:14.732Z,12.50
2019-02-04T20:11:42.893Z,11.73
2019-02-04T20:14:10.705Z,11.20
2019-02-04T20:16:39.401Z,10.90
2019-02-04T20:19:07.751Z,13.03
2019-02-04T20:21:35.623Z,12.37
2019-02-04T20:24:04.264Z,13.07
2019-02-04T20:26:32.010Z,12.53
2019-02-04T20:28:59.967Z,11.20
2019-02-04T20:31:28.083Z,14.17
2019-02-04T20:33:55.684Z,11.00
2019-02-04T20:36:23.284Z,10.93
2019-02-04T20:38:50.948Z,12.70
2019-02-04T20:41:18.553Z,11.17
2019-02-04T20:43:46.222Z,12.43
2019-02-04T20:46:14.165Z,12.50
2019-02-04T20:48:42.236Z,12.03
2019-02-04T20:51:10.782Z,10.90
2019-02-04T20:53:38.350Z,12.20
2019-02-04T20:56:06.249Z,11.97
2019-02-04T20:58:33.673Z,11.00
2019-02-04T21:01:01.290Z,11.33
2019-02-04T21:03:28.721Z,11.23
2019-02-04T21:05:56.033Z,11.43
2019-02-04T21:08:23.606Z,13.10
2019-02-04T21:10:51.071Z,11.87
2019-02-04T21:13:18.578Z,10.70
2019-02-04T21:15:45.987Z,11.17
2019-02-04T21:18:13.592Z,12.03
2019-02-04T21:20:41.052Z,10.63
2019-02-04T21:23:08.233Z,12.27
2019-02-04T21:25:35.195Z,11.87
2019-02-04T21:28:02.408Z,11.53
2019-02-04T21:30:37.760Z,11.63
2019-02-04T21:33:04.431Z,10.73
2019-02-04T21:35:31.219Z,11.67
2019-02-04T21:37:58.076Z,12.57
2019-02-04T21:40:25.378Z,10.77
2019-02-04T21:42:52.241Z,11.13
2019-02-04T21:45:21.455Z,11.53
2019-02-04T21:47:48.230Z,10.50
2019-02-04T21:50:17.776Z,11.17
2019-02-04T21:52:44.680Z,10.60
2019-02-04T21:55:12.113Z,10.70
2019-02-04T21:57:39.041Z,11.23
2019-02-04T22:00:14.997Z,11.30
2019-02-04T22:02:41.730Z,10.03
2019-02-04T22:05:13.524Z,10.17
2019-02-04T22:07:40.447Z,10.80
2019-02-04T22:10:10.693Z,11.40
2019-02-04T22:12:37.402Z,11.20
2019-02-04T22:15:06.055Z,11.77
2019-02-04T22:17:32.676Z,10.93
2019-02-04T22:19:59.351Z,9.83
2019-02-04T22:22:26.365Z,10.73
2019-02-04T22:24:53.030Z,10.27
2019-02-04T22:27:21.643Z,10.23
2019-02-04T22:29:48.238Z,11.67
2019-02-04T22:32:14.957Z,10.10
2019-02-04T22:34:41.908Z,11.47
2019-02-04T22:37:08.791Z,11.20
2019-02-04T22:39:35.463Z,9.57
2019-02-04T22:42:02.033Z,11.20
2019-02-04T22:44:28.680Z,9.70
2019-02-04T22:46:55.248Z,12.40
2019-02-04T22:49:21.853Z,9.90
2019-02-04T22:51:48.775Z,10.03
2019-02-04T22:54:15.383Z,12.10
2019-02-04T22:56:41.844Z,12.10
2019-02-04T22:59:08.454Z,11.20
2019-02-04T23:01:38.851Z,9.93
2019-02-04T23:04:06.019Z,10.47
2019-02-04T23:06:34.305Z,9.87
2019-02-04T23:09:07.517Z,9.70
2019-02-04T23:11:34.010Z,9.33
2019-02-04T23:14:03.326Z,9.83
2019-02-04T23:16:30.153Z,9.63
2019-02-04T23:18:56.789Z,11.80
2019-02-04T23:21:25.171Z,10.43
2019-02-04T23:23:53.004Z,10.77
2019-02-04T23:26:19.593Z,10.50
2019-02-04T23:28:46.545Z,9.80
2019-02-04T23:31:13.249Z,9.10
2019-02-04T23:33:39.868Z,10.03
2019-02-04T23:36:06.584Z,10.23
2019-02-04T23:38:33.135Z,10.43
2019-02-04T23:40:59.705Z,10.50
2019-02-04T23:43:26.293Z,10.03
2019-02-04T23:45:52.991Z,9.70
2019-02-04T23:48:19.996Z,9.27
2019-02-04T23:50:46.750Z,9.60
2019-02-04T23:53:13.460Z,10.50
2019-02-04T23:55:40.081Z,9.60
2019-02-04T23:58:06.655Z,9.60
